sensor_id;sensor_type;location;lat;lon;timestamp;P1;durP1;ratioP1;P2;durP2;ratioP2
8893;SDS011;4483;48.622;9.230;2022-11-15T00:01:52;6.47;;;3.90;;
8893;SDS011;4483;48.622;9.230;2022-11-15T00:04:19;4.67;;;3.77;;
8893;SDS011;4483;48.622;9.230;2022-11-15T00:06:46;5.10;;;3.50;;
8893;SDS011;4483;48.622;9.230;2022-11-15T00:09:13;4.10;;;3.70;;
8893;SDS011;4483;48.622;9.230;2022-11-15T00:11:40;5.07;;;3.67;;
8893;SDS011;4483;48.622;9.230;2022-11-15T00:14:07;5.50;;;4.07;;
8893;SDS011;4483;48.622;9.230;2022-11-15T00:16:33;5.30;;;4.20;;
8893;SDS011;4483;48.622;9.230;2022-11-15T00:19:00;5.33;;;4.60;;
8893;SDS011;4483;48.622;9.230;2022-11-15T00:21:27;5.33;;;4.57;;
8893;SDS011;4483;48.622;9.230;2022-11-15T00:23:53;5.60;;;4.00;;
8893;SDS011;4483;48.622;9.230;2022-11-15T00:26:21;5.70;;;4.43;;
8893;SDS011;4483;48.622;9.230;2022-11-15T00:28:48;5.40;;;4.60;;
8893;SDS011;4483;48.622;9.230;2022-11-15T00:31:14;5.80;;;4.07;;
8893;SDS011;4483;48.622;9.230;2022-11-15T00:33:42;8.83;;;4.30;;
8893;SDS011;4483;48.622;9.230;2022-11-15T00:36:10;5.78;;;5.03;;
8893;SDS011;4483;48.622;9.230;2022-11-15T00:38:37;7.70;;;5.17;;
8893;SDS011;4483;48.622;9.230;2022-11-15T00:41:06;5.23;;;4.67;;
8893;SDS011;4483;48.622;9.230;2022-11-15T00:43:35;5.17;;;4.23;;
8893;SDS011;4483;48.622;9.230;2022-11-15T00:46:02;9.37;;;4.50;;
8893;SDS011;4483;48.622;9.230;2022-11-15T00:48:29;6.73;;;4.43;;
8893;SDS011;4483;48.622;9.230;2022-11-15T00:50:56;4.77;;;4.33;;
8893;SDS011;4483;48.622;9.230;2022-11-15T00:53:23;5.27;;;4.23;;
8893;SDS011;4483;48.622;9.230;2022-11-15T00:55:50;6.03;;;4.53;;
8893;SDS011;4483;48.622;9.230;2022-11-15T00:58:16;6.83;;;4.73;;
8893;SDS011;4483;48.622;9.230;2022-11-15T01:00:44;6.37;;;4.63;;
8893;SDS011;4483;48.622;9.230;2022-11-15T01:03:11;5.37;;;4.87;;
8893;SDS011;4483;48.622;9.230;2022-11-15T01:05:38;4.90;;;4.40;;
8893;SDS011;4483;48.622;9.230;2022-11-15T01:08:04;10.63;;;4.20;;
8893;SDS011;4483;48.622;9.230;2022-11-15T01:10:31;4.80;;;4.20;;
8893;SDS011;4483;48.622;9.230;2022-11-15T01:12:57;6.63;;;3.73;;
8893;SDS011;4483;48.622;9.230;2022-11-15T01:15:24;4.90;;;3.60;;
8893;SDS011;4483;48.622;9.230;2022-11-15T01:17:52;4.07;;;3.67;;
8893;SDS011;4483;48.622;9.230;2022-11-15T01:20:19;3.97;;;3.57;;
8893;SDS011;4483;48.622;9.230;2022-11-15T01:22:46;5.67;;;4.03;;
8893;SDS011;4483;48.622;9.230;2022-11-15T01:25:13;8.70;;;4.03;;
8893;SDS011;4483;48.622;9.230;2022-11-15T01:27:39;3.70;;;3.40;;
8893;SDS011;4483;48.622;9.230;2022-11-15T01:30:06;4.33;;;3.93;;
8893;SDS011;4483;48.622;9.230;2022-11-15T01:32:34;8.50;;;3.60;;
8893;SDS011;4483;48.622;9.230;2022-11-15T01:35:02;6.27;;;4.20;;
8893;SDS011;4483;48.622;9.230;2022-11-15T01:37:29;4.97;;;3.50;;
8893;SDS011;4483;48.622;9.230;2022-11-15T01:39:56;3.80;;;3.50;;
8893;SDS011;4483;48.622;9.230;2022-11-15T01:42:22;4.30;;;3.90;;
8893;SDS011;4483;48.622;9.230;2022-11-15T01:44:50;5.50;;;3.90;;
8893;SDS011;4483;48.622;9.230;2022-11-15T01:47:19;6.00;;;3.40;;
8893;SDS011;4483;48.622;9.230;2022-11-15T01:49:51;7.43;;;3.60;;
8893;SDS011;4483;48.622;9.230;2022-11-15T01:52:22;4.30;;;3.50;;
8893;SDS011;4483;48.622;9.230;2022-11-15T01:54:53;3.93;;;3.27;;
8893;SDS011;4483;48.622;9.230;2022-11-15T01:57:23;5.43;;;3.40;;
8893;SDS011;4483;48.622;9.230;2022-11-15T01:59:50;3.63;;;3.33;;
8893;SDS011;4483;48.622;9.230;2022-11-15T02:02:17;5.93;;;3.30;;
8893;SDS011;4483;48.622;9.230;2022-11-15T02:04:44;4.80;;;3.30;;
8893;SDS011;4483;48.622;9.230;2022-11-15T02:07:13;3.30;;;3.00;;
8893;SDS011;4483;48.622;9.230;2022-11-15T02:09:44;4.37;;;3.43;;
8893;SDS011;4483;48.622;9.230;2022-11-15T02:12:12;3.53;;;3.10;;
8893;SDS011;4483;48.622;9.230;2022-11-15T02:14:42;3.67;;;3.23;;
8893;SDS011;4483;48.622;9.230;2022-11-15T02:17:19;5.37;;;3.57;;
8893;SDS011;4483;48.622;9.230;2022-11-15T02:20:07;6.43;;;2.80;;
8893;SDS011;4483;48.622;9.230;2022-11-15T02:23:02;5.03;;;3.30;;
8893;SDS011;4483;48.622;9.230;2022-11-15T02:25:41;3.43;;;3.13;;
8893;SDS011;4483;48.622;9.230;2022-11-15T02:28:26;5.87;;;3.47;;
8893;SDS011;4483;48.622;9.230;2022-11-15T02:31:13;3.70;;;3.30;;
8893;SDS011;4483;48.622;9.230;2022-11-15T02:33:44;3.90;;;2.80;;
8893;SDS011;4483;48.622;9.230;2022-11-15T02:36:22;4.13;;;2.93;;
8893;SDS011;4483;48.622;9.230;2022-11-15T02:38:58;4.30;;;2.67;;
8893;SDS011;4483;48.622;9.230;2022-11-15T02:41:30;6.20;;;2.77;;
8893;SDS011;4483;48.622;9.230;2022-11-15T02:44:02;5.73;;;3.10;;
8893;SDS011;4483;48.622;9.230;2022-11-15T02:46:34;3.10;;;2.70;;
8893;SDS011;4483;48.622;9.230;2022-11-15T02:49:22;2.27;;;2.17;;
8893;SDS011;4483;48.622;9.230;2022-11-15T02:51:51;3.60;;;3.27;;
8893;SDS011;4483;48.622;9.230;2022-11-15T02:54:21;2.93;;;2.60;;
8893;SDS011;4483;48.622;9.230;2022-11-15T02:56:49;4.03;;;3.20;;
8893;SDS011;4483;48.622;9.230;2022-11-15T02:59:23;3.43;;;2.70;;
8893;SDS011;4483;48.622;9.230;2022-11-15T03:02:09;8.33;;;2.80;;
8893;SDS011;4483;48.622;9.230;2022-11-15T03:04:49;4.27;;;2.87;;
8893;SDS011;4483;48.622;9.230;2022-11-15T03:07:23;5.37;;;2.60;;
8893;SDS011;4483;48.622;9.230;2022-11-15T03:09:56;4.10;;;3.23;;
8893;SDS011;4483;48.622;9.230;2022-11-15T03:12:30;4.13;;;2.80;;
8893;SDS011;4483;48.622;9.230;2022-11-15T03:15:05;3.90;;;3.20;;
8893;SDS011;4483;48.622;9.230;2022-11-15T03:17:37;3.97;;;3.03;;
8893;SDS011;4483;48.622;9.230;2022-11-15T03:20:11;5.47;;;3.00;;
8893;SDS011;4483;48.622;9.230;2022-11-15T03:22:42;3.43;;;2.77;;
8893;SDS011;4483;48.622;9.230;2022-11-15T03:25:13;2.97;;;2.70;;
8893;SDS011;4483;48.622;9.230;2022-11-15T03:27:44;4.83;;;2.70;;
8893;SDS011;4483;48.622;9.230;2022-11-15T03:30:16;3.67;;;3.00;;
8893;SDS011;4483;48.622;9.230;2022-11-15T03:32:46;4.67;;;2.70;;
8893;SDS011;4483;48.622;9.230;2022-11-15T03:35:17;2.90;;;2.63;;
8893;SDS011;4483;48.622;9.230;2022-11-15T03:37:48;3.07;;;2.73;;
8893;SDS011;4483;48.622;9.230;2022-11-15T03:40:18;4.20;;;2.90;;
8893;SDS011;4483;48.622;9.230;2022-11-15T03:42:51;6.03;;;3.00;;
8893;SDS011;4483;48.622;9.230;2022-11-15T03:45:26;6.37;;;2.63;;
8893;SDS011;4483;48.622;9.230;2022-11-15T03:47:58;4.00;;;2.50;;
8893;SDS011;4483;48.622;9.230;2022-11-15T03:50:31;2.77;;;2.57;;
8893;SDS011;4483;48.622;9.230;2022-11-15T03:52:58;3.53;;;2.90;;
8893;SDS011;4483;48.622;9.230;2022-11-15T03:55:25;3.67;;;2.70;;
8893;SDS011;4483;48.622;9.230;2022-11-15T03:57:52;2.80;;;2.60;;
8893;SDS011;4483;48.622;9.230;2022-11-15T04:00:23;2.77;;;2.53;;
8893;SDS011;4483;48.622;9.230;2022-11-15T04:02:49;3.13;;;2.47;;
8893;SDS011;4483;48.622;9.230;2022-11-15T04:05:18;4.07;;;2.50;;
8893;SDS011;4483;48.622;9.230;2022-11-15T04:07:44;6.67;;;3.00;;
8893;SDS011;4483;48.622;9.230;2022-11-15T04:10:11;5.37;;;2.80;;
8893;SDS011;4483;48.622;9.230;2022-11-15T04:12:39;3.43;;;2.57;;
8893;SDS011;4483;48.622;9.230;2022-11-15T04:15:09;5.07;;;2.70;;
8893;SDS011;4483;48.622;9.230;2022-11-15T04:17:39;4.27;;;2.60;;
8893;SDS011;4483;48.622;9.230;2022-11-15T04:20:07;2.83;;;2.53;;
8893;SDS011;4483;48.622;9.230;2022-11-15T04:22:55;3.47;;;2.30;;
8893;SDS011;4483;48.622;9.230;2022-11-15T04:25:41;3.37;;;2.50;;
8893;SDS011;4483;48.622;9.230;2022-11-15T04:28:08;2.77;;;2.57;;
8893;SDS011;4483;48.622;9.230;2022-11-15T04:30:35;3.97;;;2.60;;
8893;SDS011;4483;48.622;9.230;2022-11-15T04:33:02;2.43;;;2.30;;
8893;SDS011;4483;48.622;9.230;2022-11-15T04:35:29;6.70;;;2.63;;
8893;SDS011;4483;48.622;9.230;2022-11-15T04:37:57;5.87;;;2.90;;
8893;SDS011;4483;48.622;9.230;2022-11-15T04:40:24;5.70;;;2.77;;
8893;SDS011;4483;48.622;9.230;2022-11-15T04:42:51;2.70;;;2.50;;
8893;SDS011;4483;48.622;9.230;2022-11-15T04:45:18;3.53;;;2.60;;
8893;SDS011;4483;48.622;9.230;2022-11-15T04:47:44;5.67;;;2.63;;
8893;SDS011;4483;48.622;9.230;2022-11-15T04:50:11;2.90;;;2.70;;
8893;SDS011;4483;48.622;9.230;2022-11-15T04:52:40;3.90;;;2.87;;
8893;SDS011;4483;48.622;9.230;2022-11-15T04:55:08;3.50;;;3.20;;
8893;SDS011;4483;48.622;9.230;2022-11-15T04:57:36;3.07;;;2.77;;
8893;SDS011;4483;48.622;9.230;2022-11-15T05:00:03;4.23;;;2.67;;
8893;SDS011;4483;48.622;9.230;2022-11-15T05:02:31;4.27;;;3.00;;
8893;SDS011;4483;48.622;9.230;2022-11-15T05:05:12;3.43;;;2.80;;
8893;SDS011;4483;48.622;9.230;2022-11-15T05:07:38;3.03;;;2.83;;
8893;SDS011;4483;48.622;9.230;2022-11-15T05:10:05;3.30;;;3.10;;
8893;SDS011;4483;48.622;9.230;2022-11-15T05:12:34;3.10;;;2.80;;
8893;SDS011;4483;48.622;9.230;2022-11-15T05:15:01;3.23;;;2.83;;
8893;SDS011;4483;48.622;9.230;2022-11-15T05:17:27;3.73;;;2.80;;
8893;SDS011;4483;48.622;9.230;2022-11-15T05:19:54;4.00;;;2.87;;
8893;SDS011;4483;48.622;9.230;2022-11-15T05:22:21;7.00;;;3.17;;
8893;SDS011;4483;48.622;9.230;2022-11-15T05:24:48;2.80;;;2.60;;
8893;SDS011;4483;48.622;9.230;2022-11-15T05:27:15;3.07;;;2.73;;
8893;SDS011;4483;48.622;9.230;2022-11-15T05:29:43;3.13;;;2.93;;
8893;SDS011;4483;48.622;9.230;2022-11-15T05:32:09;3.93;;;2.90;;
8893;SDS011;4483;48.622;9.230;2022-11-15T05:34:38;2.87;;;2.67;;
8893;SDS011;4483;48.622;9.230;2022-11-15T05:37:04;8.13;;;3.33;;
8893;SDS011;4483;48.622;9.230;2022-11-15T05:39:31;2.60;;;2.40;;
8893;SDS011;4483;48.622;9.230;2022-11-15T05:41:59;4.57;;;2.83;;
8893;SDS011;4483;48.622;9.230;2022-11-15T05:44:30;3.40;;;3.10;;
8893;SDS011;4483;48.622;9.230;2022-11-15T05:46:59;4.17;;;3.20;;
8893;SDS011;4483;48.622;9.230;2022-11-15T05:49:27;3.33;;;3.03;;
8893;SDS011;4483;48.622;9.230;2022-11-15T05:51:57;3.03;;;2.73;;
8893;SDS011;4483;48.622;9.230;2022-11-15T05:54:25;3.40;;;2.73;;
8893;SDS011;4483;48.622;9.230;2022-11-15T05:56:52;3.43;;;2.80;;
8893;SDS011;4483;48.622;9.230;2022-11-15T05:59:20;5.10;;;2.63;;
8893;SDS011;4483;48.622;9.230;2022-11-15T06:01:47;3.10;;;2.50;;
8893;SDS011;4483;48.622;9.230;2022-11-15T06:04:15;4.23;;;2.80;;
8893;SDS011;4483;48.622;9.230;2022-11-15T06:06:42;4.00;;;2.43;;
8893;SDS011;4483;48.622;9.230;2022-11-15T06:09:08;3.33;;;2.93;;
8893;SDS011;4483;48.622;9.230;2022-11-15T06:11:35;2.60;;;2.40;;
8893;SDS011;4483;48.622;9.230;2022-11-15T06:14:02;5.57;;;2.80;;
8893;SDS011;4483;48.622;9.230;2022-11-15T06:16:29;2.50;;;2.30;;
8893;SDS011;4483;48.622;9.230;2022-11-15T06:18:55;5.63;;;2.47;;
8893;SDS011;4483;48.622;9.230;2022-11-15T06:21:23;2.77;;;2.57;;
8893;SDS011;4483;48.622;9.230;2022-11-15T06:23:52;3.80;;;2.50;;
8893;SDS011;4483;48.622;9.230;2022-11-15T06:26:19;2.97;;;2.47;;
8893;SDS011;4483;48.622;9.230;2022-11-15T06:28:46;5.83;;;2.60;;
8893;SDS011;4483;48.622;9.230;2022-11-15T06:31:12;2.90;;;2.60;;
8893;SDS011;4483;48.622;9.230;2022-11-15T06:33:39;4.73;;;2.30;;
8893;SDS011;4483;48.622;9.230;2022-11-15T06:36:07;2.63;;;2.43;;
8893;SDS011;4483;48.622;9.230;2022-11-15T06:38:37;5.00;;;2.87;;
8893;SDS011;4483;48.622;9.230;2022-11-15T06:41:04;3.90;;;2.90;;
8893;SDS011;4483;48.622;9.230;2022-11-15T06:43:32;4.87;;;4.37;;
8893;SDS011;4483;48.622;9.230;2022-11-15T06:46:00;5.10;;;3.20;;
8893;SDS011;4483;48.622;9.230;2022-11-15T06:48:27;3.20;;;2.90;;
8893;SDS011;4483;48.622;9.230;2022-11-15T06:50:54;5.07;;;3.57;;
8893;SDS011;4483;48.622;9.230;2022-11-15T06:53:21;5.63;;;2.97;;
8893;SDS011;4483;48.622;9.230;2022-11-15T06:55:50;3.23;;;2.93;;
8893;SDS011;4483;48.622;9.230;2022-11-15T06:58:17;3.30;;;3.00;;
8893;SDS011;4483;48.622;9.230;2022-11-15T07:00:44;3.33;;;3.00;;
8893;SDS011;4483;48.622;9.230;2022-11-15T07:03:11;3.13;;;2.90;;
8893;SDS011;4483;48.622;9.230;2022-11-15T07:05:37;4.87;;;3.00;;
8893;SDS011;4483;48.622;9.230;2022-11-15T07:08:04;6.63;;;3.03;;
8893;SDS011;4483;48.622;9.230;2022-11-15T07:10:31;3.43;;;3.03;;
8893;SDS011;4483;48.622;9.230;2022-11-15T07:12:58;3.83;;;2.87;;
8893;SDS011;4483;48.622;9.230;2022-11-15T07:15:25;4.90;;;3.40;;
8893;SDS011;4483;48.622;9.230;2022-11-15T07:17:52;3.73;;;3.03;;
8893;SDS011;4483;48.622;9.230;2022-11-15T07:20:18;6.80;;;3.40;;
8893;SDS011;4483;48.622;9.230;2022-11-15T07:22:45;4.80;;;3.00;;
8893;SDS011;4483;48.622;9.230;2022-11-15T07:25:12;4.83;;;2.87;;
8893;SDS011;4483;48.622;9.230;2022-11-15T07:27:38;3.57;;;3.20;;
8893;SDS011;4483;48.622;9.230;2022-11-15T07:30:07;4.97;;;3.00;;
8893;SDS011;4483;48.622;9.230;2022-11-15T07:32:35;3.07;;;2.57;;
8893;SDS011;4483;48.622;9.230;2022-11-15T07:35:01;3.10;;;2.90;;
8893;SDS011;4483;48.622;9.230;2022-11-15T07:37:28;3.10;;;2.80;;
8893;SDS011;4483;48.622;9.230;2022-11-15T07:39:55;4.17;;;3.10;;
8893;SDS011;4483;48.622;9.230;2022-11-15T07:42:21;2.70;;;2.50;;
8893;SDS011;4483;48.622;9.230;2022-11-15T07:45:07;5.80;;;2.83;;
8893;SDS011;4483;48.622;9.230;2022-11-15T07:47:34;3.87;;;2.47;;
8893;SDS011;4483;48.622;9.230;2022-11-15T07:50:01;4.10;;;2.90;;
8893;SDS011;4483;48.622;9.230;2022-11-15T07:52:27;4.17;;;2.90;;
8893;SDS011;4483;48.622;9.230;2022-11-15T07:54:54;5.13;;;2.90;;
8893;SDS011;4483;48.622;9.230;2022-11-15T07:57:20;4.90;;;3.00;;
8893;SDS011;4483;48.622;9.230;2022-11-15T07:59:47;8.00;;;5.87;;
8893;SDS011;4483;48.622;9.230;2022-11-15T08:02:15;3.97;;;3.57;;
8893;SDS011;4483;48.622;9.230;2022-11-15T08:04:42;4.10;;;2.70;;
8893;SDS011;4483;48.622;9.230;2022-11-15T08:07:09;6.20;;;3.30;;
8893;SDS011;4483;48.622;9.230;2022-11-15T08:09:36;4.17;;;3.23;;
8893;SDS011;4483;48.622;9.230;2022-11-15T08:12:03;4.73;;;3.30;;
8893;SDS011;4483;48.622;9.230;2022-11-15T08:14:30;4.90;;;4.50;;
8893;SDS011;4483;48.622;9.230;2022-11-15T08:16:57;4.80;;;3.70;;
8893;SDS011;4483;48.622;9.230;2022-11-15T08:19:25;4.53;;;4.13;;
8893;SDS011;4483;48.622;9.230;2022-11-15T08:21:51;4.73;;;3.83;;
8893;SDS011;4483;48.622;9.230;2022-11-15T08:24:18;3.53;;;3.23;;
8893;SDS011;4483;48.622;9.230;2022-11-15T08:26:45;3.60;;;3.30;;
8893;SDS011;4483;48.622;9.230;2022-11-15T08:29:12;5.70;;;3.23;;
8893;SDS011;4483;48.622;9.230;2022-11-15T08:31:38;3.07;;;2.87;;
8893;SDS011;4483;48.622;9.230;2022-11-15T08:34:05;3.37;;;3.07;;
8893;SDS011;4483;48.622;9.230;2022-11-15T08:36:33;3.43;;;3.13;;
8893;SDS011;4483;48.622;9.230;2022-11-15T08:39:00;3.20;;;2.90;;
8893;SDS011;4483;48.622;9.230;2022-11-15T08:41:28;3.03;;;2.80;;
8893;SDS011;4483;48.622;9.230;2022-11-15T08:43:57;4.03;;;2.93;;
8893;SDS011;4483;48.622;9.230;2022-11-15T08:46:24;3.73;;;2.70;;
8893;SDS011;4483;48.622;9.230;2022-11-15T08:48:50;3.50;;;3.20;;
8893;SDS011;4483;48.622;9.230;2022-11-15T08:51:17;8.07;;;2.77;;
8893;SDS011;4483;48.622;9.230;2022-11-15T08:53:45;10.97;;;3.00;;
8893;SDS011;4483;48.622;9.230;2022-11-15T08:56:12;3.27;;;2.97;;
8893;SDS011;4483;48.622;9.230;2022-11-15T08:58:40;5.77;;;2.40;;
8893;SDS011;4483;48.622;9.230;2022-11-15T09:01:13;4.23;;;3.10;;
8893;SDS011;4483;48.622;9.230;2022-11-15T09:03:41;4.07;;;3.30;;
8893;SDS011;4483;48.622;9.230;2022-11-15T09:06:08;3.10;;;2.90;;
8893;SDS011;4483;48.622;9.230;2022-11-15T09:08:35;4.63;;;2.97;;
8893;SDS011;4483;48.622;9.230;2022-11-15T09:11:04;5.00;;;3.50;;
8893;SDS011;4483;48.622;9.230;2022-11-15T09:13:31;3.70;;;2.80;;
8893;SDS011;4483;48.622;9.230;2022-11-15T09:15:57;5.90;;;3.30;;
8893;SDS011;4483;48.622;9.230;2022-11-15T09:18:24;2.90;;;2.70;;
8893;SDS011;4483;48.622;9.230;2022-11-15T09:20:54;3.27;;;2.80;;
8893;SDS011;4483;48.622;9.230;2022-11-15T09:23:21;5.90;;;3.10;;
8893;SDS011;4483;48.622;9.230;2022-11-15T09:25:48;4.70;;;3.40;;
8893;SDS011;4483;48.622;9.230;2022-11-15T09:28:16;4.00;;;3.03;;
8893;SDS011;4483;48.622;9.230;2022-11-15T09:30:43;3.43;;;2.60;;
8893;SDS011;4483;48.622;9.230;2022-11-15T09:33:10;3.90;;;3.53;;
8893;SDS011;4483;48.622;9.230;2022-11-15T09:35:37;3.30;;;3.07;;
8893;SDS011;4483;48.622;9.230;2022-11-15T09:38:05;4.40;;;3.50;;
8893;SDS011;4483;48.622;9.230;2022-11-15T09:40:32;4.50;;;4.10;;
8893;SDS011;4483;48.622;9.230;2022-11-15T09:43:10;3.03;;;2.83;;
8893;SDS011;4483;48.622;9.230;2022-11-15T09:45:56;3.00;;;2.80;;
8893;SDS011;4483;48.622;9.230;2022-11-15T09:51:28;4.17;;;3.43;;
8893;SDS011;4483;48.622;9.230;2022-11-15T09:54:02;4.37;;;3.60;;
8893;SDS011;4483;48.622;9.230;2022-11-15T09:56:36;5.47;;;3.63;;
8893;SDS011;4483;48.622;9.230;2022-11-15T10:02:08;16.63;;;12.97;;
8893;SDS011;4483;48.622;9.230;2022-11-15T10:04:45;4.83;;;4.43;;
8893;SDS011;4483;48.622;9.230;2022-11-15T10:07:13;5.10;;;3.90;;
8893;SDS011;4483;48.622;9.230;2022-11-15T10:09:44;3.73;;;3.43;;
8893;SDS011;4483;48.622;9.230;2022-11-15T10:12:15;5.33;;;3.50;;
8893;SDS011;4483;48.622;9.230;2022-11-15T10:14:45;3.73;;;3.43;;
8893;SDS011;4483;48.622;9.230;2022-11-15T10:17:16;4.53;;;3.30;;
8893;SDS011;4483;48.622;9.230;2022-11-15T10:19:59;3.80;;;3.50;;
8893;SDS011;4483;48.622;9.230;2022-11-15T10:22:35;3.93;;;3.63;;
8893;SDS011;4483;48.622;9.230;2022-11-15T10:25:14;4.90;;;3.00;;
8893;SDS011;4483;48.622;9.230;2022-11-15T10:27:46;4.40;;;3.27;;
8893;SDS011;4483;48.622;9.230;2022-11-15T10:30:19;4.33;;;3.33;;
8893;SDS011;4483;48.622;9.230;2022-11-15T10:32:47;5.67;;;3.20;;
8893;SDS011;4483;48.622;9.230;2022-11-15T10:35:16;5.63;;;3.30;;
8893;SDS011;4483;48.622;9.230;2022-11-15T10:37:47;7.20;;;4.37;;
8893;SDS011;4483;48.622;9.230;2022-11-15T10:40:15;6.67;;;3.07;;
8893;SDS011;4483;48.622;9.230;2022-11-15T10:42:44;3.60;;;3.10;;
8893;SDS011;4483;48.622;9.230;2022-11-15T10:45:25;5.20;;;3.30;;
8893;SDS011;4483;48.622;9.230;2022-11-15T10:47:54;5.23;;;3.53;;
8893;SDS011;4483;48.622;9.230;2022-11-15T10:50:48;3.20;;;2.90;;
8893;SDS011;4483;48.622;9.230;2022-11-15T10:53:17;5.67;;;3.60;;
8893;SDS011;4483;48.622;9.230;2022-11-15T10:55:54;9.27;;;4.10;;
8893;SDS011;4483;48.622;9.230;2022-11-15T10:58:29;7.60;;;5.50;;
8893;SDS011;4483;48.622;9.230;2022-11-15T11:01:09;7.80;;;6.20;;
8893;SDS011;4483;48.622;9.230;2022-11-15T11:03:42;10.10;;;5.90;;
8893;SDS011;4483;48.622;9.230;2022-11-15T11:06:10;9.13;;;5.30;;
8893;SDS011;4483;48.622;9.230;2022-11-15T11:08:38;7.20;;;4.33;;
8893;SDS011;4483;48.622;9.230;2022-11-15T11:11:05;8.67;;;4.50;;
8893;SDS011;4483;48.622;9.230;2022-11-15T11:13:34;11.37;;;5.00;;
8893;SDS011;4483;48.622;9.230;2022-11-15T11:18:54;15.23;;;5.20;;
8893;SDS011;4483;48.622;9.230;2022-11-15T11:21:30;9.83;;;5.30;;
8893;SDS011;4483;48.622;9.230;2022-11-15T11:24:08;7.33;;;4.80;;
8893;SDS011;4483;48.622;9.230;2022-11-15T11:26:42;6.33;;;5.23;;
8893;SDS011;4483;48.622;9.230;2022-11-15T11:29:20;5.60;;;4.67;;
8893;SDS011;4483;48.622;9.230;2022-11-15T11:31:57;11.53;;;4.90;;
8893;SDS011;4483;48.622;9.230;2022-11-15T11:34:39;6.37;;;4.93;;
8893;SDS011;4483;48.622;9.230;2022-11-15T11:37:17;8.20;;;4.57;;
8893;SDS011;4483;48.622;9.230;2022-11-15T11:39:54;6.27;;;4.40;;
8893;SDS011;4483;48.622;9.230;2022-11-15T11:42:33;6.30;;;4.77;;
8893;SDS011;4483;48.622;9.230;2022-11-15T11:45:14;6.10;;;4.60;;
8893;SDS011;4483;48.622;9.230;2022-11-15T11:47:47;5.43;;;4.33;;
8893;SDS011;4483;48.622;9.230;2022-11-15T11:50:22;9.83;;;4.67;;
8893;SDS011;4483;48.622;9.230;2022-11-15T11:52:54;6.10;;;4.37;;
8893;SDS011;4483;48.622;9.230;2022-11-15T11:55:24;6.40;;;4.70;;
8893;SDS011;4483;48.622;9.230;2022-11-15T11:58:03;9.30;;;5.23;;
8893;SDS011;4483;48.622;9.230;2022-11-15T12:00:38;7.43;;;4.43;;
8893;SDS011;4483;48.622;9.230;2022-11-15T12:03:09;6.00;;;4.50;;
8893;SDS011;4483;48.622;9.230;2022-11-15T12:05:40;6.13;;;4.77;;
8893;SDS011;4483;48.622;9.230;2022-11-15T12:08:16;6.33;;;4.27;;
8893;SDS011;4483;48.622;9.230;2022-11-15T12:10:52;8.47;;;4.50;;
8893;SDS011;4483;48.622;9.230;2022-11-15T12:13:24;4.77;;;3.80;;
8893;SDS011;4483;48.622;9.230;2022-11-15T12:15:59;7.77;;;4.43;;
8893;SDS011;4483;48.622;9.230;2022-11-15T12:18:33;5.10;;;3.13;;
8893;SDS011;4483;48.622;9.230;2022-11-15T12:21:01;4.43;;;3.03;;
8893;SDS011;4483;48.622;9.230;2022-11-15T12:23:34;9.47;;;3.20;;
8893;SDS011;4483;48.622;9.230;2022-11-15T12:26:07;4.73;;;3.47;;
8893;SDS011;4483;48.622;9.230;2022-11-15T12:28:38;4.30;;;3.60;;
8893;SDS011;4483;48.622;9.230;2022-11-15T12:31:10;6.97;;;3.17;;
8893;SDS011;4483;48.622;9.230;2022-11-15T12:33:43;4.30;;;3.57;;
8893;SDS011;4483;48.622;9.230;2022-11-15T12:36:29;8.17;;;3.43;;
8893;SDS011;4483;48.622;9.230;2022-11-15T12:39:00;6.33;;;4.10;;
8893;SDS011;4483;48.622;9.230;2022-11-15T12:41:29;9.47;;;4.00;;
8893;SDS011;4483;48.622;9.230;2022-11-15T12:43:57;11.27;;;5.70;;
8893;SDS011;4483;48.622;9.230;2022-11-15T12:52:11;4.40;;;4.00;;
8893;SDS011;4483;48.622;9.230;2022-11-15T12:57:39;7.70;;;4.00;;
8893;SDS011;4483;48.622;9.230;2022-11-15T13:06:38;3.27;;;2.97;;
8893;SDS011;4483;48.622;9.230;2022-11-15T13:12:11;4.70;;;3.20;;
8893;SDS011;4483;48.622;9.230;2022-11-15T13:15:37;4.27;;;3.60;;
8893;SDS011;4483;48.622;9.230;2022-11-15T13:18:27;4.00;;;3.60;;
8893;SDS011;4483;48.622;9.230;2022-11-15T13:20:57;5.13;;;3.90;;
8893;SDS011;4483;48.622;9.230;2022-11-15T13:23:23;5.43;;;3.77;;
8893;SDS011;4483;48.622;9.230;2022-11-15T13:25:57;6.80;;;3.90;;
8893;SDS011;4483;48.622;9.230;2022-11-15T13:28:36;8.87;;;4.40;;
8893;SDS011;4483;48.622;9.230;2022-11-15T13:31:17;10.63;;;4.20;;
8893;SDS011;4483;48.622;9.230;2022-11-15T13:33:49;9.23;;;4.50;;
8893;SDS011;4483;48.622;9.230;2022-11-15T13:36:18;4.90;;;4.00;;
8893;SDS011;4483;48.622;9.230;2022-11-15T13:38:53;6.03;;;3.97;;
8893;SDS011;4483;48.622;9.230;2022-11-15T13:41:22;7.97;;;5.60;;
8893;SDS011;4483;48.622;9.230;2022-11-15T13:43:50;9.07;;;7.00;;
8893;SDS011;4483;48.622;9.230;2022-11-15T13:46:19;9.43;;;6.77;;
8893;SDS011;4483;48.622;9.230;2022-11-15T13:48:50;7.07;;;4.83;;
8893;SDS011;4483;48.622;9.230;2022-11-15T13:51:20;4.33;;;3.90;;
8893;SDS011;4483;48.622;9.230;2022-11-15T13:53:50;9.27;;;4.20;;
8893;SDS011;4483;48.622;9.230;2022-11-15T13:56:20;6.03;;;4.10;;
8893;SDS011;4483;48.622;9.230;2022-11-15T13:58:47;4.87;;;4.00;;
8893;SDS011;4483;48.622;9.230;2022-11-15T14:01:15;5.77;;;4.13;;
8893;SDS011;4483;48.622;9.230;2022-11-15T14:03:49;7.77;;;4.67;;
8893;SDS011;4483;48.622;9.230;2022-11-15T14:06:19;5.77;;;4.40;;
8893;SDS011;4483;48.622;9.230;2022-11-15T14:09:14;6.47;;;4.60;;
8893;SDS011;4483;48.622;9.230;2022-11-15T14:11:52;8.80;;;4.83;;
8893;SDS011;4483;48.622;9.230;2022-11-15T14:14:20;6.20;;;4.70;;
8893;SDS011;4483;48.622;9.230;2022-11-15T14:16:49;9.60;;;5.13;;
8893;SDS011;4483;48.622;9.230;2022-11-15T14:19:34;6.93;;;4.87;;
8893;SDS011;4483;48.622;9.230;2022-11-15T14:22:13;6.73;;;5.13;;
8893;SDS011;4483;48.622;9.230;2022-11-15T14:24:42;6.27;;;5.37;;
8893;SDS011;4483;48.622;9.230;2022-11-15T14:27:16;5.97;;;4.87;;
8893;SDS011;4483;48.622;9.230;2022-11-15T14:29:48;8.23;;;4.30;;
8893;SDS011;4483;48.622;9.230;2022-11-15T14:32:16;6.20;;;4.70;;
8893;SDS011;4483;48.622;9.230;2022-11-15T14:34:46;6.13;;;4.30;;
8893;SDS011;4483;48.622;9.230;2022-11-15T14:37:19;6.97;;;4.70;;
8893;SDS011;4483;48.622;9.230;2022-11-15T14:39:48;5.33;;;4.83;;
8893;SDS011;4483;48.622;9.230;2022-11-15T14:42:15;6.63;;;4.20;;
8893;SDS011;4483;48.622;9.230;2022-11-15T14:44:42;9.37;;;4.20;;
8893;SDS011;4483;48.622;9.230;2022-11-15T14:47:08;8.77;;;4.53;;
8893;SDS011;4483;48.622;9.230;2022-11-15T14:49:35;5.00;;;3.73;;
8893;SDS011;4483;48.622;9.230;2022-11-15T14:52:03;7.30;;;3.73;;
8893;SDS011;4483;48.622;9.230;2022-11-15T14:54:37;5.03;;;3.70;;
8893;SDS011;4483;48.622;9.230;2022-11-15T14:57:04;6.20;;;3.40;;
8893;SDS011;4483;48.622;9.230;2022-11-15T14:59:31;4.60;;;3.50;;
8893;SDS011;4483;48.622;9.230;2022-11-15T15:01:57;5.10;;;3.03;;
8893;SDS011;4483;48.622;9.230;2022-11-15T15:04:25;5.70;;;3.40;;
8893;SDS011;4483;48.622;9.230;2022-11-15T15:06:52;5.73;;;3.60;;
8893;SDS011;4483;48.622;9.230;2022-11-15T15:09:20;8.07;;;4.27;;
8893;SDS011;4483;48.622;9.230;2022-11-15T15:11:47;6.40;;;4.23;;
8893;SDS011;4483;48.622;9.230;2022-11-15T15:14:13;5.00;;;3.87;;
8893;SDS011;4483;48.622;9.230;2022-11-15T15:16:40;6.80;;;4.13;;
8893;SDS011;4483;48.622;9.230;2022-11-15T15:19:07;4.47;;;3.50;;
8893;SDS011;4483;48.622;9.230;2022-11-15T15:21:33;9.80;;;3.97;;
8893;SDS011;4483;48.622;9.230;2022-11-15T15:24:00;10.07;;;3.50;;
8893;SDS011;4483;48.622;9.230;2022-11-15T15:26:28;6.83;;;4.10;;
8893;SDS011;4483;48.622;9.230;2022-11-15T15:28:58;8.70;;;4.00;;
8893;SDS011;4483;48.622;9.230;2022-11-15T15:31:25;6.17;;;3.80;;
8893;SDS011;4483;48.622;9.230;2022-11-15T15:33:51;4.37;;;3.97;;
8893;SDS011;4483;48.622;9.230;2022-11-15T15:36:18;5.80;;;4.30;;
8893;SDS011;4483;48.622;9.230;2022-11-15T15:38:45;7.93;;;4.20;;
8893;SDS011;4483;48.622;9.230;2022-11-15T15:41:12;4.37;;;3.77;;
8893;SDS011;4483;48.622;9.230;2022-11-15T15:43:41;6.77;;;4.40;;
8893;SDS011;4483;48.622;9.230;2022-11-15T15:46:09;8.83;;;4.00;;
8893;SDS011;4483;48.622;9.230;2022-11-15T15:48:38;4.30;;;3.90;;
8893;SDS011;4483;48.622;9.230;2022-11-15T15:51:04;5.13;;;4.13;;
8893;SDS011;4483;48.622;9.230;2022-11-15T15:53:31;6.60;;;3.80;;
8893;SDS011;4483;48.622;9.230;2022-11-15T15:55:58;9.33;;;3.60;;
8893;SDS011;4483;48.622;9.230;2022-11-15T15:58:24;6.97;;;4.20;;
8893;SDS011;4483;48.622;9.230;2022-11-15T16:00:53;6.23;;;4.50;;